sensor_id;sensor_type;location;lat;lon;timestamp;pressure;altitude;pressure_sealevel;temperature;humidity
56632;BME280;42503;39.928;-75.152;2023-08-06T00:04:40;101319.28;;;27.75;52.25
56632;BME280;42503;39.928;-75.152;2023-08-06T00:14:42;101352.72;;;27.99;52.07
56632;BME280;42503;39.928;-75.152;2023-08-06T00:24:43;101330.63;;;28.06;51.75
56632;BME280;42503;39.928;-75.152;2023-08-06T00:34:45;101327.28;;;28.04;51.65
56632;BME280;42503;39.928;-75.152;2023-08-06T00:44:46;101328.63;;;28.06;51.56
56632;BME280;42503;39.928;-75.152;2023-08-06T00:54:48;101328.28;;;28.08;51.26
56632;BME280;42503;39.928;-75.152;2023-08-06T01:04:49;101345.56;;;28.15;51.32
56632;BME280;42503;39.928;-75.152;2023-08-06T01:14:57;101350.09;;;28.25;51.12
56632;BME280;42503;39.928;-75.152;2023-08-06T01:25:02;101359.50;;;28.20;51.15
56632;BME280;42503;39.928;-75.152;2023-08-06T01:35:07;101347.22;;;28.16;51.58
56632;BME280;42503;39.928;-75.152;2023-08-06T01:45:10;101374.06;;;28.22;51.14
56632;BME280;42503;39.928;-75.152;2023-08-06T01:55:12;101351.41;;;28.19;51.02
56632;BME280;42503;39.928;-75.152;2023-08-06T02:05:16;101381.75;;;28.30;50.99
56632;BME280;42503;39.928;-75.152;2023-08-06T02:15:17;101396.34;;;28.32;50.88
56632;BME280;42503;39.928;-75.152;2023-08-06T02:25:19;101406.59;;;28.28;50.88
56632;BME280;42503;39.928;-75.152;2023-08-06T02:35:22;101404.91;;;28.27;51.05
56632;BME280;42503;39.928;-75.152;2023-08-06T02:45:48;101424.22;;;28.20;50.93
56632;BME280;42503;39.928;-75.152;2023-08-06T02:55:52;101403.44;;;28.30;50.94
56632;BME280;42503;39.928;-75.152;2023-08-06T03:05:54;101374.66;;;28.33;50.92
56632;BME280;42503;39.928;-75.152;2023-08-06T03:15:57;101384.16;;;28.37;50.63
56632;BME280;42503;39.928;-75.152;2023-08-06T03:26:07;101388.28;;;28.40;50.60
56632;BME280;42503;39.928;-75.152;2023-08-06T03:36:09;101393.63;;;28.41;50.39
56632;BME280;42503;39.928;-75.152;2023-08-06T03:46:10;101393.19;;;28.34;50.42
56632;BME280;42503;39.928;-75.152;2023-08-06T03:56:14;101413.44;;;28.36;50.70
56632;BME280;42503;39.928;-75.152;2023-08-06T04:06:15;101420.22;;;28.35;50.85
56632;BME280;42503;39.928;-75.152;2023-08-06T04:16:22;101422.41;;;28.38;50.52
56632;BME280;42503;39.928;-75.152;2023-08-06T04:26:46;101387.66;;;28.20;50.75
56632;BME280;42503;39.928;-75.152;2023-08-06T04:36:48;101427.06;;;28.43;50.53
56632;BME280;42503;39.928;-75.152;2023-08-06T04:46:50;101389.81;;;28.23;50.36
56632;BME280;42503;39.928;-75.152;2023-08-06T04:56:52;101385.47;;;28.17;50.46
56632;BME280;42503;39.928;-75.152;2023-08-06T05:06:54;101420.91;;;28.41;50.30
56632;BME280;42503;39.928;-75.152;2023-08-06T05:16:55;101404.41;;;28.25;50.50
56632;BME280;42503;39.928;-75.152;2023-08-06T05:26:56;101411.34;;;28.42;50.29
56632;BME280;42503;39.928;-75.152;2023-08-06T05:36:58;101415.28;;;28.41;50.16
56632;BME280;42503;39.928;-75.152;2023-08-06T05:46:59;101433.19;;;28.45;50.50
56632;BME280;42503;39.928;-75.152;2023-08-06T05:57:00;101438.41;;;28.51;50.13
56632;BME280;42503;39.928;-75.152;2023-08-06T06:07:11;101441.34;;;28.46;50.34
56632;BME280;42503;39.928;-75.152;2023-08-06T06:17:15;101424.75;;;28.45;50.23
56632;BME280;42503;39.928;-75.152;2023-08-06T06:27:18;101437.56;;;28.51;50.05
56632;BME280;42503;39.928;-75.152;2023-08-06T06:37:19;101433.72;;;28.47;50.20
56632;BME280;42503;39.928;-75.152;2023-08-06T06:47:23;101436.41;;;28.52;50.02
56632;BME280;42503;39.928;-75.152;2023-08-06T06:57:24;101437.50;;;28.42;50.54
56632;BME280;42503;39.928;-75.152;2023-08-06T07:07:26;101434.34;;;28.44;50.35
56632;BME280;42503;39.928;-75.152;2023-08-06T07:17:27;101430.66;;;28.34;50.22
56632;BME280;42503;39.928;-75.152;2023-08-06T07:27:29;101434.50;;;28.39;50.20
56632;BME280;42503;39.928;-75.152;2023-08-06T07:37:30;101444.19;;;28.32;50.22
56632;BME280;42503;39.928;-75.152;2023-08-06T07:47:31;101450.75;;;28.42;50.22
56632;BME280;42503;39.928;-75.152;2023-08-06T07:57:33;101448.91;;;28.37;50.25
56632;BME280;42503;39.928;-75.152;2023-08-06T08:07:35;101463.03;;;28.46;50.31
56632;BME280;42503;39.928;-75.152;2023-08-06T08:17:40;101489.28;;;28.55;50.16
56632;BME280;42503;39.928;-75.152;2023-08-06T08:27:42;101481.72;;;28.42;50.31
56632;BME280;42503;39.928;-75.152;2023-08-06T08:37:46;101481.84;;;28.36;50.30
56632;BME280;42503;39.928;-75.152;2023-08-06T08:47:48;101486.19;;;28.43;50.24
56632;BME280;42503;39.928;-75.152;2023-08-06T08:57:49;101465.78;;;28.37;49.93
56632;BME280;42503;39.928;-75.152;2023-08-06T09:08:04;101478.91;;;28.42;50.10
56632;BME280;42503;39.928;-75.152;2023-08-06T09:18:10;101485.84;;;28.44;49.95
56632;BME280;42503;39.928;-75.152;2023-08-06T09:28:12;101491.28;;;28.41;50.06
56632;BME280;42503;39.928;-75.152;2023-08-06T09:38:13;101500.63;;;28.50;50.00
56632;BME280;42503;39.928;-75.152;2023-08-06T09:48:16;101490.53;;;28.49;50.03
56632;BME280;42503;39.928;-75.152;2023-08-06T09:58:17;101462.88;;;28.28;50.31
56632;BME280;42503;39.928;-75.152;2023-08-06T10:08:19;101474.00;;;28.33;50.06
56632;BME280;42503;39.928;-75.152;2023-08-06T10:18:20;101494.50;;;28.48;50.08
56632;BME280;42503;39.928;-75.152;2023-08-06T10:28:34;101520.47;;;28.45;50.10
56632;BME280;42503;39.928;-75.152;2023-08-06T10:38:48;101515.38;;;28.47;50.13
56632;BME280;42503;39.928;-75.152;2023-08-06T10:48:50;101502.03;;;28.39;50.13
56632;BME280;42503;39.928;-75.152;2023-08-06T10:58:54;101510.81;;;28.37;49.84
56632;BME280;42503;39.928;-75.152;2023-08-06T11:08:59;101533.09;;;28.33;50.19
56632;BME280;42503;39.928;-75.152;2023-08-06T11:19:03;101544.16;;;28.44;49.91
56632;BME280;42503;39.928;-75.152;2023-08-06T11:29:06;101527.19;;;28.35;50.28
56632;BME280;42503;39.928;-75.152;2023-08-06T11:39:07;101530.41;;;28.42;49.74
56632;BME280;42503;39.928;-75.152;2023-08-06T11:49:10;101553.28;;;28.49;49.95
56632;BME280;42503;39.928;-75.152;2023-08-06T11:59:11;101537.06;;;28.32;49.97
56632;BME280;42503;39.928;-75.152;2023-08-06T12:09:13;101555.81;;;28.51;49.68
56632;BME280;42503;39.928;-75.152;2023-08-06T12:19:17;101556.44;;;28.48;49.84
56632;BME280;42503;39.928;-75.152;2023-08-06T12:29:18;101535.56;;;28.49;49.82
56632;BME280;42503;39.928;-75.152;2023-08-06T12:39:20;101534.94;;;28.52;49.98
56632;BME280;42503;39.928;-75.152;2023-08-06T12:49:23;101533.28;;;28.51;49.84
56632;BME280;42503;39.928;-75.152;2023-08-06T12:59:28;101539.53;;;28.48;49.99
56632;BME280;42503;39.928;-75.152;2023-08-06T13:09:29;101531.31;;;28.51;49.77
56632;BME280;42503;39.928;-75.152;2023-08-06T13:19:33;101509.22;;;28.45;49.84
56632;BME280;42503;39.928;-75.152;2023-08-06T13:29:34;101511.88;;;28.50;49.99
56632;BME280;42503;39.928;-75.152;2023-08-06T13:39:35;101479.06;;;28.23;49.81
56632;BME280;42503;39.928;-75.152;2023-08-06T13:49:37;101509.94;;;28.50;49.98
56632;BME280;42503;39.928;-75.152;2023-08-06T13:59:38;101511.88;;;28.50;50.00
56632;BME280;42503;39.928;-75.152;2023-08-06T14:09:40;101495.00;;;27.77;46.49
56632;BME280;42503;39.928;-75.152;2023-08-06T14:19:48;101516.31;;;27.23;46.29
56632;BME280;42503;39.928;-75.152;2023-08-06T14:29:49;101520.47;;;27.40;53.63
56632;BME280;42503;39.928;-75.152;2023-08-06T14:39:51;101503.41;;;27.64;52.79
56632;BME280;42503;39.928;-75.152;2023-08-06T14:49:53;101521.84;;;27.83;52.13
56632;BME280;42503;39.928;-75.152;2023-08-06T14:59:54;101484.25;;;27.79;51.49
56632;BME280;42503;39.928;-75.152;2023-08-06T15:09:56;101515.88;;;27.99;51.23
56632;BME280;42503;39.928;-75.152;2023-08-06T15:19:57;101528.06;;;28.08;50.88
56632;BME280;42503;39.928;-75.152;2023-08-06T15:29:59;101511.25;;;28.17;50.52
56632;BME280;42503;39.928;-75.152;2023-08-06T15:40:05;101470.03;;;27.98;50.57
56632;BME280;42503;39.928;-75.152;2023-08-06T15:50:07;101461.31;;;28.00;50.45
56632;BME280;42503;39.928;-75.152;2023-08-06T16:00:10;101499.94;;;28.30;50.30
56632;BME280;42503;39.928;-75.152;2023-08-06T16:10:11;101488.19;;;28.28;50.27
56632;BME280;42503;39.928;-75.152;2023-08-06T16:20:13;101481.84;;;28.36;50.27
56632;BME280;42503;39.928;-75.152;2023-08-06T16:30:15;101469.28;;;28.43;49.98
56632;BME280;42503;39.928;-75.152;2023-08-06T16:40:17;101470.47;;;28.42;49.83
56632;BME280;42503;39.928;-75.152;2023-08-06T16:50:19;101466.16;;;28.08;47.94
56632;BME280;42503;39.928;-75.152;2023-08-06T17:00:23;101452.00;;;27.35;47.37
56632;BME280;42503;39.928;-75.152;2023-08-06T17:10:25;101447.78;;;26.92;46.66
56632;BME280;42503;39.928;-75.152;2023-08-06T17:20:26;101448.44;;;27.16;54.34
56632;BME280;42503;39.928;-75.152;2023-08-06T17:30:28;101432.00;;;27.51;53.47
56632;BME280;42503;39.928;-75.152;2023-08-06T17:40:29;101419.06;;;27.77;52.58
56632;BME280;42503;39.928;-75.152;2023-08-06T17:50:30;101389.47;;;27.80;51.95
56632;BME280;42503;39.928;-75.152;2023-08-06T18:00:32;101397.09;;;28.02;51.33
56632;BME280;42503;39.928;-75.152;2023-08-06T18:10:33;101403.75;;;28.06;51.47
56632;BME280;42503;39.928;-75.152;2023-08-06T18:20:35;101389.44;;;28.16;50.91
56632;BME280;42503;39.928;-75.152;2023-08-06T18:30:37;101387.00;;;28.23;50.85
56632;BME280;42503;39.928;-75.152;2023-08-06T18:40:42;101384.06;;;28.28;50.88
56632;BME280;42503;39.928;-75.152;2023-08-06T18:50:47;101340.97;;;28.19;50.55
56632;BME280;42503;39.928;-75.152;2023-08-06T19:00:55;101356.13;;;28.32;50.36
56632;BME280;42503;39.928;-75.152;2023-08-06T19:10:59;101344.41;;;28.39;50.47
56632;BME280;42503;39.928;-75.152;2023-08-06T19:21:03;101336.81;;;28.39;48.62
56632;BME280;42503;39.928;-75.152;2023-08-06T19:31:04;101312.66;;;27.57;48.11
56632;BME280;42503;39.928;-75.152;2023-08-06T19:41:12;101317.75;;;27.19;47.94
56632;BME280;42503;39.928;-75.152;2023-08-06T19:51:16;101300.47;;;26.98;51.68
56632;BME280;42503;39.928;-75.152;2023-08-06T20:01:22;101296.91;;;27.33;54.59
56632;BME280;42503;39.928;-75.152;2023-08-06T20:11:23;101270.63;;;27.52;53.62
56632;BME280;42503;39.928;-75.152;2023-08-06T20:21:26;101244.56;;;27.60;52.62
56632;BME280;42503;39.928;-75.152;2023-08-06T20:31:28;101261.31;;;27.88;52.33
56632;BME280;42503;39.928;-75.152;2023-08-06T20:41:31;101266.06;;;28.01;51.69
56632;BME280;42503;39.928;-75.152;2023-08-06T20:51:32;101217.44;;;27.78;51.62
56632;BME280;42503;39.928;-75.152;2023-08-06T21:01:33;101259.66;;;28.09;51.26
56632;BME280;42503;39.928;-75.152;2023-08-06T21:11:35;101256.16;;;28.12;51.33
56632;BME280;42503;39.928;-75.152;2023-08-06T21:21:36;101262.53;;;28.26;51.25
56632;BME280;42503;39.928;-75.152;2023-08-06T21:31:40;101236.72;;;28.24;51.00
56632;BME280;42503;39.928;-75.152;2023-08-06T21:41:46;101223.81;;;28.23;50.88
56632;BME280;42503;39.928;-75.152;2023-08-06T21:51:48;101248.53;;;28.35;50.93
56632;BME280;42503;39.928;-75.152;2023-08-06T22:01:49;101253.19;;;28.40;50.87
56632;BME280;42503;39.928;-75.152;2023-08-06T22:11:50;101260.34;;;28.46;50.56
56632;BME280;42503;39.928;-75.152;2023-08-06T22:21:52;101271.63;;;28.46;50.80
56632;BME280;42503;39.928;-75.152;2023-08-06T22:31:53;101272.38;;;28.06;50.06
56632;BME280;42503;39.928;-75.152;2023-08-06T22:41:55;101254.78;;;27.56;50.12
56632;BME280;42503;39.928;-75.152;2023-08-06T22:51:56;101238.22;;;27.32;50.34
56632;BME280;42503;39.928;-75.152;2023-08-06T23:01:58;101231.88;;;26.90;49.76
56632;BME280;42503;39.928;-75.152;2023-08-06T23:11:59;101260.09;;;27.07;53.40
56632;BME280;42503;39.928;-75.152;2023-08-06T23:22:02;101228.28;;;27.12;54.49
56632;BME280;42503;39.928;-75.152;2023-08-06T23:32:03;101258.50;;;27.65;53.39
56632;BME280;42503;39.928;-75.152;2023-08-06T23:42:05;101255.31;;;27.80;52.74
56632;BME280;42503;39.928;-75.152;2023-08-06T23:52:08;101245.97;;;27.71;52.47
